createdAt,value
2018-12-10T00:01:24.172Z,2.63
2018-12-10T00:03:51.717Z,3.63
2018-12-10T00:06:23.302Z,3.07
2018-12-10T00:08:50.842Z,2.70
2018-12-10T00:11:18.290Z,3.40
2018-12-10T00:13:45.699Z,2.77
2018-12-10T00:16:13.153Z,3.07
2018-12-10T00:18:40.574Z,2.73
2018-12-10T00:21:08.004Z,2.80
2018-12-10T00:23:35.462Z,3.43
2018-12-10T00:26:02.954Z,2.93
2018-12-10T00:28:30.381Z,4.07
2018-12-10T00:30:57.898Z,2.77
2018-12-10T00:33:25.321Z,4.00
2018-12-10T00:35:52.750Z,3.17
2018-12-10T00:38:20.185Z,3.20
2018-12-10T00:40:47.628Z,3.70
2018-12-10T00:43:15.237Z,2.87
2018-12-10T00:45:42.695Z,3.20
2018-12-10T00:48:10.138Z,2.83
2018-12-10T00:50:37.551Z,3.50
2018-12-10T00:53:05.010Z,3.33
2018-12-10T00:55:32.533Z,2.87
2018-12-10T00:57:59.989Z,2.87
2018-12-10T01:00:27.387Z,2.60
2018-12-10T01:02:54.823Z,2.93
2018-12-10T01:05:22.474Z,2.90
2018-12-10T01:07:49.895Z,2.47
2018-12-10T01:10:17.635Z,2.80
2018-12-10T01:12:45.069Z,2.37
2018-12-10T01:15:12.823Z,3.83
2018-12-10T01:17:40.252Z,2.67
2018-12-10T01:20:07.931Z,2.40
2018-12-10T01:22:35.379Z,2.67
2018-12-10T01:25:02.830Z,2.27
2018-12-10T01:27:30.247Z,2.13
2018-12-10T01:29:57.686Z,2.47
2018-12-10T01:32:25.165Z,2.83
2018-12-10T01:34:52.599Z,2.80
2018-12-10T01:37:20.037Z,2.70
2018-12-10T01:39:47.464Z,2.73
2018-12-10T01:42:14.886Z,2.50
2018-12-10T01:44:42.313Z,2.73
2018-12-10T01:47:09.837Z,2.63
2018-12-10T01:49:37.234Z,2.60
2018-12-10T01:52:04.670Z,2.53
2018-12-10T01:54:32.087Z,2.50
2018-12-10T01:56:59.531Z,2.83
2018-12-10T01:59:26.960Z,2.37
2018-12-10T02:01:54.513Z,2.50
2018-12-10T02:04:22.042Z,2.37
2018-12-10T02:06:49.473Z,3.00
2018-12-10T02:09:17.071Z,2.90
2018-12-10T02:11:44.530Z,2.43
2018-12-10T02:14:11.957Z,2.97
2018-12-10T02:16:44.361Z,2.03
2018-12-10T02:19:11.789Z,2.60
2018-12-10T02:21:43.418Z,2.07
2018-12-10T02:24:11.028Z,2.53
2018-12-10T02:26:38.490Z,2.30
2018-12-10T02:29:11.418Z,2.37
2018-12-10T02:31:38.854Z,2.47
2018-12-10T02:34:06.297Z,2.60
2018-12-10T02:36:33.723Z,2.60
2018-12-10T02:39:01.435Z,2.13
2018-12-10T02:41:29.099Z,2.50
2018-12-10T02:43:56.593Z,2.27
2018-12-10T02:46:24.258Z,3.17
2018-12-10T02:48:51.697Z,2.10
2018-12-10T02:51:19.223Z,2.97
2018-12-10T02:53:46.648Z,2.90
2018-12-10T02:56:14.166Z,2.50
2018-12-10T02:58:41.618Z,2.97
2018-12-10T03:01:09.024Z,2.50
2018-12-10T03:03:36.753Z,2.80
2018-12-10T03:06:04.198Z,3.03
2018-12-10T03:08:31.641Z,2.07
2018-12-10T03:10:59.199Z,2.10
2018-12-10T03:13:26.623Z,2.03
2018-12-10T03:15:54.031Z,2.50
2018-12-10T03:18:21.496Z,2.17
2018-12-10T03:20:49.128Z,3.00
2018-12-10T03:23:16.647Z,2.70
2018-12-10T03:25:44.390Z,1.80
2018-12-10T03:28:11.794Z,2.40
2018-12-10T03:30:39.312Z,2.27
2018-12-10T03:33:06.727Z,2.00
2018-12-10T03:35:34.250Z,1.60
2018-12-10T03:38:01.662Z,2.00
2018-12-10T03:40:29.084Z,2.03
2018-12-10T03:42:56.499Z,1.83
2018-12-10T03:45:23.936Z,1.93
2018-12-10T03:47:51.356Z,1.67
2018-12-10T03:50:18.976Z,1.73
2018-12-10T03:52:46.394Z,2.10
2018-12-10T03:55:13.958Z,2.47
2018-12-10T03:57:41.369Z,1.50
2018-12-10T04:00:08.858Z,2.20
2018-12-10T04:02:36.299Z,1.93
2018-12-10T04:05:04.357Z,1.87
2018-12-10T04:07:31.791Z,1.43
2018-12-10T04:09:59.381Z,1.73
2018-12-10T04:12:26.832Z,2.53
2018-12-10T04:14:54.243Z,2.00
2018-12-10T04:17:22.051Z,1.50
2018-12-10T04:19:49.476Z,1.60
2018-12-10T04:22:17.059Z,1.90
2018-12-10T04:24:45.742Z,1.90
2018-12-10T04:27:13.352Z,1.67
2018-12-10T04:29:40.768Z,1.50
2018-12-10T04:32:08.192Z,1.80
2018-12-10T04:34:35.633Z,1.67
2018-12-10T04:37:03.206Z,1.97
2018-12-10T04:39:30.627Z,1.83
2018-12-10T04:41:58.058Z,1.60
2018-12-10T04:44:25.586Z,1.93
2018-12-10T04:46:53.042Z,2.23
2018-12-10T04:49:20.478Z,1.57
2018-12-10T04:51:48.019Z,1.70
2018-12-10T04:54:15.560Z,2.30
2018-12-10T04:56:42.962Z,2.23
2018-12-10T04:59:10.396Z,1.70
2018-12-10T05:01:37.829Z,1.60
2018-12-10T05:04:05.319Z,1.90
2018-12-10T05:06:32.749Z,1.90
2018-12-10T05:09:00.156Z,3.00
2018-12-10T05:11:27.588Z,2.13
2018-12-10T05:13:55.209Z,2.40
2018-12-10T05:16:22.622Z,2.77
2018-12-10T05:18:50.047Z,2.67
2018-12-10T05:21:17.535Z,3.00
2018-12-10T05:23:44.960Z,3.60
2018-12-10T05:26:12.435Z,3.70
2018-12-10T05:28:39.939Z,4.03
2018-12-10T05:31:07.460Z,4.97
2018-12-10T05:33:34.926Z,5.37
2018-12-10T05:36:02.338Z,4.90
2018-12-10T05:38:29.759Z,4.97
2018-12-10T05:40:57.285Z,4.47
2018-12-10T05:43:24.700Z,3.50
2018-12-10T05:45:52.135Z,3.97
2018-12-10T05:48:19.654Z,3.30
2018-12-10T05:50:47.170Z,7.97
2018-12-10T05:53:14.582Z,4.00
2018-12-10T05:55:41.998Z,3.40
2018-12-10T05:58:09.431Z,3.63
2018-12-10T06:00:36.866Z,3.40
2018-12-10T06:03:04.306Z,2.87
2018-12-10T06:05:31.705Z,3.47
2018-12-10T06:07:59.159Z,3.30
2018-12-10T06:10:26.570Z,3.57
2018-12-10T06:12:54.009Z,3.13
2018-12-10T06:15:21.575Z,3.00
2018-12-10T06:17:49.046Z,3.50
2018-12-10T06:20:16.511Z,3.37
2018-12-10T06:22:43.954Z,3.60
2018-12-10T06:25:11.591Z,3.60
2018-12-10T06:27:39.211Z,3.00
2018-12-10T06:30:07.004Z,2.70
2018-12-10T06:32:34.499Z,3.27
2018-12-10T06:35:01.950Z,2.73
2018-12-10T06:37:37.345Z,2.97
2018-12-10T06:39:58.921Z,2.50
2018-12-10T06:42:26.375Z,2.70
2018-12-10T06:44:53.789Z,2.77
2018-12-10T06:47:21.198Z,2.53
2018-12-10T06:49:48.626Z,2.87
2018-12-10T06:52:16.053Z,2.50
2018-12-10T06:54:44.234Z,2.17
2018-12-10T06:57:11.654Z,2.33
2018-12-10T06:59:39.103Z,2.37
2018-12-10T07:02:06.523Z,2.93
2018-12-10T07:04:34.067Z,2.27
2018-12-10T07:07:01.469Z,2.30
2018-12-10T07:09:28.899Z,2.53
2018-12-10T07:11:56.314Z,2.00
2018-12-10T07:14:23.912Z,2.47
2018-12-10T07:16:51.343Z,2.13
2018-12-10T07:19:18.797Z,2.63
2018-12-10T07:21:46.232Z,3.03
2018-12-10T07:24:13.633Z,2.73
2018-12-10T07:26:41.072Z,3.30
2018-12-10T07:29:08.606Z,3.70
2018-12-10T07:31:36.010Z,3.57
2018-12-10T07:34:03.474Z,4.13
2018-12-10T07:36:31.054Z,4.23
2018-12-10T07:38:58.608Z,4.40
2018-12-10T07:41:26.234Z,5.03
2018-12-10T07:43:53.767Z,4.50
2018-12-10T07:46:21.714Z,5.37
2018-12-10T07:48:49.139Z,5.00
2018-12-10T07:51:16.639Z,4.73
2018-12-10T07:53:44.052Z,5.20
2018-12-10T07:56:11.478Z,4.80
2018-12-10T07:58:38.902Z,4.10
2018-12-10T08:01:06.408Z,4.23
2018-12-10T08:03:33.819Z,4.37
2018-12-10T08:06:01.254Z,3.17
2018-12-10T08:08:28.681Z,3.53
2018-12-10T08:10:56.111Z,3.73
2018-12-10T08:13:23.528Z,3.53
2018-12-10T08:15:50.997Z,2.77
2018-12-10T08:18:18.411Z,3.87
2018-12-10T08:20:45.844Z,2.93
2018-12-10T08:23:13.355Z,3.20
2018-12-10T08:25:40.917Z,2.83
2018-12-10T08:28:08.438Z,3.90
2018-12-10T08:30:35.854Z,8.20
2018-12-10T08:33:03.403Z,4.43
2018-12-10T08:35:30.973Z,4.13
2018-12-10T08:37:58.446Z,3.17
2018-12-10T08:40:25.887Z,2.70
2018-12-10T08:42:53.527Z,2.63
2018-12-10T08:45:20.975Z,2.57
2018-12-10T08:47:48.540Z,2.50
2018-12-10T08:50:15.994Z,3.00
2018-12-10T08:52:43.410Z,2.70
2018-12-10T08:55:10.835Z,3.50
2018-12-10T08:57:38.278Z,3.43
2018-12-10T09:00:06.965Z,2.80
2018-12-10T09:02:34.730Z,2.63
2018-12-10T09:05:02.167Z,3.30
2018-12-10T09:07:29.621Z,3.03
2018-12-10T09:09:57.165Z,3.03
2018-12-10T09:12:24.730Z,3.00
2018-12-10T09:14:52.281Z,4.77
2018-12-10T09:17:19.702Z,3.27
2018-12-10T09:19:47.237Z,3.60
2018-12-10T09:22:14.669Z,5.33
2018-12-10T09:24:42.184Z,6.40
2018-12-10T09:27:09.638Z,5.73
2018-12-10T09:29:37.196Z,8.80
2018-12-10T09:32:04.810Z,6.83
2018-12-10T09:34:32.436Z,8.30
2018-12-10T09:36:59.848Z,6.40
2018-12-10T09:39:27.315Z,7.33
2018-12-10T09:41:54.738Z,6.07
2018-12-10T09:44:22.218Z,5.27
2018-12-10T09:46:58.443Z,6.50
2018-12-10T09:49:19.241Z,5.47
2018-12-10T09:51:47.062Z,4.90
2018-12-10T09:54:14.702Z,5.93
2018-12-10T09:56:42.324Z,5.03
2018-12-10T09:59:09.760Z,4.90
2018-12-10T10:01:37.272Z,5.00
2018-12-10T10:04:04.762Z,4.83
2018-12-10T10:06:32.225Z,4.30
2018-12-10T10:08:59.954Z,4.50
2018-12-10T10:11:27.390Z,3.83
2018-12-10T10:13:54.924Z,3.83
2018-12-10T10:16:23.003Z,4.43
2018-12-10T10:18:50.457Z,4.10
2018-12-10T10:21:17.915Z,3.40
2018-12-10T10:23:45.890Z,2.73
2018-12-10T10:26:13.364Z,2.50
2018-12-10T10:28:40.935Z,2.07
2018-12-10T10:31:08.367Z,2.53
2018-12-10T10:33:35.825Z,2.30
2018-12-10T10:36:03.322Z,2.50
2018-12-10T10:38:30.751Z,1.70
2018-12-10T10:40:58.187Z,1.40
2018-12-10T10:43:25.658Z,1.50
2018-12-10T10:45:53.088Z,1.97
2018-12-10T10:48:20.545Z,1.67
2018-12-10T10:50:48.060Z,1.47
2018-12-10T10:53:15.551Z,1.90
2018-12-10T10:55:43.099Z,1.80
2018-12-10T10:58:10.553Z,2.03
2018-12-10T11:00:43.727Z,2.10
2018-12-10T11:06:11.679Z,5.07
2018-12-10T11:08:39.166Z,4.27
2018-12-10T11:11:06.645Z,6.20
2018-12-10T11:13:34.053Z,6.00
2018-12-10T11:16:01.508Z,7.23
2018-12-10T11:18:28.939Z,7.43
2018-12-10T11:20:56.399Z,7.43
2018-12-10T11:23:23.858Z,8.30
2018-12-10T11:25:51.505Z,9.63
2018-12-10T11:28:19.263Z,8.17
2018-12-10T11:30:46.739Z,17.67
2018-12-10T11:33:14.210Z,7.77
2018-12-10T11:35:41.822Z,7.70
2018-12-10T11:38:09.266Z,7.20
2018-12-10T11:40:36.715Z,6.50
2018-12-10T11:43:04.150Z,6.20
2018-12-10T11:45:31.595Z,5.57
2018-12-10T11:47:59.163Z,4.77
2018-12-10T11:50:26.831Z,5.30
2018-12-10T11:52:54.258Z,4.40
2018-12-10T11:55:21.848Z,4.20
2018-12-10T11:57:49.264Z,5.23
2018-12-10T12:00:16.786Z,3.83
2018-12-10T12:02:44.234Z,3.93
2018-12-10T12:05:11.793Z,4.33
2018-12-10T12:07:39.236Z,4.60
2018-12-10T12:10:06.947Z,4.27
2018-12-10T12:12:34.467Z,4.20
2018-12-10T12:15:01.895Z,4.20
2018-12-10T12:17:29.337Z,3.70
2018-12-10T12:19:56.735Z,4.30
2018-12-10T12:22:24.199Z,4.80
2018-12-10T12:24:51.605Z,4.50
2018-12-10T12:27:19.159Z,4.50
2018-12-10T12:29:46.583Z,5.20
2018-12-10T12:32:14.051Z,5.00
2018-12-10T12:34:41.486Z,3.70
2018-12-10T12:37:08.918Z,8.97
2018-12-10T12:39:36.561Z,14.20
2018-12-10T12:42:04.068Z,7.80
2018-12-10T12:44:31.618Z,3.87
2018-12-10T12:46:59.325Z,4.17
2018-12-10T12:49:26.847Z,3.43
2018-12-10T12:51:54.340Z,4.03
2018-12-10T12:54:21.886Z,3.67
2018-12-10T12:56:49.347Z,3.20
2018-12-10T12:59:16.782Z,2.90
2018-12-10T13:01:49.104Z,2.67
2018-12-10T13:04:14.010Z,2.73
2018-12-10T13:06:41.541Z,2.80
2018-12-10T13:09:08.975Z,3.23
2018-12-10T13:11:37.182Z,3.97
2018-12-10T13:14:04.778Z,3.57
2018-12-10T13:16:32.198Z,3.37
2018-12-10T13:18:59.668Z,3.40
2018-12-10T13:21:27.206Z,3.10
2018-12-10T13:23:54.735Z,3.93
2018-12-10T13:26:22.251Z,18.90
2018-12-10T13:28:49.676Z,3.30
2018-12-10T13:31:17.115Z,3.00
2018-12-10T13:33:44.545Z,2.80
2018-12-10T13:36:11.977Z,3.00
2018-12-10T13:38:39.380Z,2.90
2018-12-10T13:41:06.825Z,2.63
2018-12-10T13:43:34.246Z,2.60
2018-12-10T13:46:01.776Z,3.07
2018-12-10T13:48:29.323Z,3.00
2018-12-10T13:50:56.765Z,3.20
2018-12-10T13:53:24.271Z,3.80
2018-12-10T13:55:51.873Z,4.40
2018-12-10T13:58:19.323Z,3.90
2018-12-10T14:00:51.052Z,3.23
2018-12-10T14:03:16.720Z,3.30
2018-12-10T14:05:47.530Z,3.20
2018-12-10T14:08:13.599Z,2.30
2018-12-10T14:10:41.007Z,2.30
2018-12-10T14:13:08.447Z,3.17
2018-12-10T14:15:35.862Z,2.40
2018-12-10T14:18:03.369Z,3.43
2018-12-10T14:20:30.852Z,2.90
2018-12-10T14:22:58.398Z,2.10
2018-12-10T14:25:25.960Z,2.10
2018-12-10T14:27:53.590Z,2.03
2018-12-10T14:30:21.173Z,2.00
2018-12-10T14:32:48.672Z,2.40
2018-12-10T14:35:16.098Z,2.40
2018-12-10T14:37:43.615Z,2.40
2018-12-10T14:40:11.145Z,2.97
2018-12-10T14:42:55.616Z,2.70
2018-12-10T14:45:23.338Z,2.30
2018-12-10T14:47:51.443Z,2.70
2018-12-10T14:50:18.952Z,2.57
2018-12-10T14:52:46.487Z,4.20
2018-12-10T14:55:13.937Z,3.50
2018-12-10T14:57:41.427Z,3.20
2018-12-10T15:00:10.392Z,2.73
2018-12-10T15:02:37.803Z,3.10
2018-12-10T15:05:06.674Z,3.43
2018-12-10T15:07:34.106Z,3.40
2018-12-10T15:10:01.544Z,3.07
2018-12-10T15:12:28.957Z,2.43
2018-12-10T15:14:56.398Z,3.23
2018-12-10T15:17:23.849Z,2.73
2018-12-10T15:19:51.406Z,3.03
2018-12-10T15:22:18.836Z,2.87
2018-12-10T15:24:46.327Z,3.07
2018-12-10T15:27:13.861Z,2.77
2018-12-10T15:29:41.286Z,2.57
2018-12-10T15:32:08.699Z,2.67
2018-12-10T15:34:41.154Z,2.80
2018-12-10T15:37:08.603Z,2.90
2018-12-10T15:39:36.014Z,3.00
2018-12-10T15:42:03.533Z,3.80
2018-12-10T15:44:30.955Z,3.83
2018-12-10T15:46:58.372Z,2.47
2018-12-10T15:49:25.908Z,3.97
2018-12-10T15:51:53.347Z,3.50
2018-12-10T15:54:20.835Z,2.70
2018-12-10T15:56:48.306Z,4.13
2018-12-10T15:59:15.724Z,2.97
2018-12-10T16:01:43.155Z,2.33
2018-12-10T16:04:10.564Z,2.77
2018-12-10T16:06:38.021Z,2.80
2018-12-10T16:09:06.903Z,3.90
2018-12-10T16:11:34.368Z,2.07
2018-12-10T16:14:01.766Z,2.80
2018-12-10T16:16:29.191Z,2.17
2018-12-10T16:18:56.638Z,2.20
2018-12-10T16:21:24.057Z,2.10
2018-12-10T16:23:52.430Z,2.23
2018-12-10T16:26:19.842Z,2.60
2018-12-10T16:28:47.290Z,3.50
2018-12-10T16:31:14.704Z,2.57
2018-12-10T16:33:42.336Z,3.10
2018-12-10T16:36:10.192Z,2.63
2018-12-10T16:38:37.623Z,2.97
2018-12-10T16:41:05.198Z,3.23
2018-12-10T16:43:32.631Z,3.17
2018-12-10T16:46:00.117Z,3.00
2018-12-10T16:48:27.570Z,2.83
2018-12-10T16:50:54.989Z,2.83
2018-12-10T16:53:22.406Z,2.97
2018-12-10T16:55:49.841Z,2.97
2018-12-10T16:58:17.336Z,2.70
2018-12-10T17:00:44.754Z,2.67
2018-12-10T17:03:12.174Z,2.97
2018-12-10T17:05:39.689Z,2.80
2018-12-10T17:08:07.315Z,2.80
2018-12-10T17:10:34.743Z,3.23
2018-12-10T17:13:02.284Z,2.70
2018-12-10T17:15:29.720Z,3.27
2018-12-10T17:17:57.160Z,2.80
2018-12-10T17:20:24.605Z,3.67
2018-12-10T17:22:52.381Z,3.73
2018-12-10T17:25:19.805Z,3.23
2018-12-10T17:27:47.324Z,4.20
2018-12-10T17:30:14.746Z,3.90
2018-12-10T17:32:42.191Z,2.93
2018-12-10T17:35:09.601Z,3.87
2018-12-10T17:37:37.087Z,4.30
2018-12-10T17:40:05.076Z,3.13
2018-12-10T17:42:39.538Z,3.77
2018-12-10T17:45:08.734Z,3.30
2018-12-10T17:47:36.223Z,3.10
2018-12-10T17:50:04.712Z,3.70
2018-12-10T17:52:32.181Z,3.77
2018-12-10T17:55:00.182Z,3.13
2018-12-10T17:57:27.607Z,3.30
2018-12-10T17:59:55.323Z,3.73
2018-12-10T18:02:26.821Z,4.03
2018-12-10T18:04:54.570Z,3.40
2018-12-10T18:07:22.004Z,4.43
2018-12-10T18:09:49.586Z,3.77
2018-12-10T18:12:17.006Z,3.57
2018-12-10T18:14:44.450Z,3.20
2018-12-10T18:17:11.978Z,3.07
2018-12-10T18:19:39.418Z,3.20
2018-12-10T18:22:06.835Z,3.13
2018-12-10T18:24:34.273Z,3.03
2018-12-10T18:27:01.771Z,3.30
2018-12-10T18:29:29.231Z,3.50
2018-12-10T18:31:56.926Z,3.47
2018-12-10T18:34:24.357Z,3.50
2018-12-10T18:36:51.778Z,3.87
2018-12-10T18:39:19.237Z,3.70
2018-12-10T18:41:46.675Z,3.63
2018-12-10T18:44:14.123Z,3.70
2018-12-10T18:46:41.649Z,3.60
2018-12-10T18:49:09.122Z,3.47
2018-12-10T18:51:36.574Z,4.17
2018-12-10T18:54:04.069Z,3.60
2018-12-10T18:56:31.787Z,4.43
2018-12-10T18:58:59.286Z,3.90
2018-12-10T19:01:26.709Z,3.80
2018-12-10T19:03:54.132Z,3.60
2018-12-10T19:06:21.562Z,3.53
2018-12-10T19:08:49.680Z,3.50
2018-12-10T19:11:17.565Z,3.27
2018-12-10T19:13:49.849Z,3.37
2018-12-10T19:16:14.601Z,3.13
2018-12-10T19:18:42.034Z,3.73
2018-12-10T19:21:09.532Z,3.40
2018-12-10T19:23:36.969Z,3.70
2018-12-10T19:26:04.485Z,3.33
2018-12-10T19:28:31.950Z,2.83
2018-12-10T19:30:59.360Z,3.23
2018-12-10T19:33:26.964Z,3.57
2018-12-10T19:35:54.492Z,4.00
2018-12-10T19:38:21.948Z,3.40
2018-12-10T19:40:49.355Z,3.10
2018-12-10T19:43:16.803Z,3.67
2018-12-10T19:45:44.225Z,3.20
2018-12-10T19:48:11.845Z,3.37
2018-12-10T19:50:39.267Z,3.80
2018-12-10T19:53:06.699Z,3.50
2018-12-10T19:55:34.133Z,3.40
2018-12-10T19:58:01.668Z,3.30
2018-12-10T20:00:29.122Z,4.33
2018-12-10T20:02:56.811Z,3.73
2018-12-10T20:05:26.283Z,3.10
2018-12-10T20:07:53.774Z,4.13
2018-12-10T20:10:21.192Z,3.97
2018-12-10T20:12:48.647Z,3.83
2018-12-10T20:15:16.190Z,4.77
2018-12-10T20:17:43.598Z,4.10
2018-12-10T20:20:11.061Z,4.40
2018-12-10T20:22:38.503Z,3.70
2018-12-10T20:25:07.185Z,4.30
2018-12-10T20:27:34.696Z,3.43
2018-12-10T20:30:07.323Z,4.40
2018-12-10T20:32:34.781Z,4.23
2018-12-10T20:35:02.476Z,4.17
2018-12-10T20:37:30.318Z,4.93
2018-12-10T20:39:57.970Z,4.00
2018-12-10T20:42:25.412Z,4.70
2018-12-10T20:44:52.837Z,4.70
2018-12-10T20:47:20.382Z,4.57
2018-12-10T20:49:47.819Z,4.30
2018-12-10T20:52:15.261Z,3.90
2018-12-10T20:54:42.700Z,4.27
2018-12-10T20:57:10.151Z,4.33
2018-12-10T20:59:37.583Z,4.63
2018-12-10T21:02:05.207Z,4.43
2018-12-10T21:04:32.713Z,4.50
2018-12-10T21:07:00.183Z,4.40
2018-12-10T21:09:27.627Z,4.13
2018-12-10T21:11:55.099Z,4.30
2018-12-10T21:14:22.531Z,4.53
2018-12-10T21:16:49.987Z,4.13
2018-12-10T21:19:17.464Z,4.27
2018-12-10T21:21:45.070Z,4.00
2018-12-10T21:24:12.522Z,4.53
2018-12-10T21:26:39.942Z,4.47
2018-12-10T21:29:07.483Z,5.10
2018-12-10T21:31:34.923Z,4.97
2018-12-10T21:34:02.360Z,5.40
2018-12-10T21:36:29.922Z,5.77
2018-12-10T21:38:57.347Z,4.63
2018-12-10T21:41:25.077Z,4.33
2018-12-10T21:43:52.506Z,5.63
2018-12-10T21:46:19.939Z,4.27
2018-12-10T21:48:47.393Z,4.60
2018-12-10T21:51:14.822Z,4.53
2018-12-10T21:53:42.268Z,5.23
2018-12-10T21:56:09.796Z,4.63
2018-12-10T21:58:37.508Z,5.27
2018-12-10T22:01:04.954Z,4.73
2018-12-10T22:03:32.462Z,4.70
2018-12-10T22:06:00.795Z,5.40
2018-12-10T22:08:28.256Z,5.37
2018-12-10T22:10:55.844Z,4.80
2018-12-10T22:13:23.473Z,4.27
2018-12-10T22:15:50.943Z,4.70
2018-12-10T22:18:18.383Z,6.47
2018-12-10T22:20:45.948Z,4.83
2018-12-10T22:23:13.600Z,5.17
2018-12-10T22:25:41.054Z,5.17
2018-12-10T22:28:08.494Z,5.90
2018-12-10T22:30:35.926Z,4.93
2018-12-10T22:33:03.511Z,4.00
2018-12-10T22:35:30.960Z,4.93
2018-12-10T22:37:58.475Z,3.90
2018-12-10T22:40:26.107Z,4.83
2018-12-10T22:42:53.648Z,4.37
2018-12-10T22:45:21.597Z,4.70
2018-12-10T22:47:49.052Z,4.33
2018-12-10T22:50:16.664Z,4.40
2018-12-10T22:52:44.091Z,4.70
2018-12-10T22:55:11.545Z,4.60
2018-12-10T22:57:39.203Z,9.20
2018-12-10T23:00:09.027Z,4.97
2018-12-10T23:02:36.576Z,3.97
2018-12-10T23:05:04.461Z,4.73
2018-12-10T23:07:31.920Z,4.47
2018-12-10T23:09:59.319Z,5.20
2018-12-10T23:12:26.759Z,4.67
2018-12-10T23:14:54.203Z,4.70
2018-12-10T23:17:21.766Z,5.10
2018-12-10T23:19:49.434Z,4.67
2018-12-10T23:22:17.034Z,5.07
2018-12-10T23:24:44.516Z,4.43
2018-12-10T23:27:11.960Z,4.90
2018-12-10T23:29:39.394Z,4.17
2018-12-10T23:32:06.818Z,4.70
2018-12-10T23:34:34.268Z,4.93
2018-12-10T23:37:01.787Z,4.67
2018-12-10T23:39:29.226Z,4.77
2018-12-10T23:41:56.686Z,5.37
2018-12-10T23:47:22.338Z,4.63
2018-12-10T23:49:49.779Z,4.93
2018-12-10T23:52:17.191Z,4.60
2018-12-10T23:54:44.622Z,4.37
2018-12-10T23:57:12.042Z,4.80
2018-12-10T23:59:39.790Z,4.87
